Time;durP1;ratioP1;P1;durP2;ratioP2;P2;SDS_P1;SDS_P2;PMS_P1;PMS_P2;Temp;Humidity;BMP_temperature;BMP_pressure;BME280_temperature;BME280_humidity;BME280_pressure;Samples;Min_cycle;Max_cycle;Signal;HPM_P1;HPM_P2
2023/03/09 00:00:40;;;;;;;;;;;;;;;1.53;84.41;98983.22;4122086;28;20029;-63
2023/03/09 00:02:42;;;;;;;;;;;;;;;1.55;84.28;98995.41;4122850;28;20020;-61
2023/03/09 00:04:44;;;;;;;;;;;;;;;1.53;84.36;99005.34;4122169;28;20016;-63
2023/03/09 00:06:53;;;;;;;;;;;;;;;1.51;84.59;99001.19;4123248;28;20014;-63
2023/03/09 00:08:55;;;;;;;;;;;;;;;1.50;84.30;99000.34;4123604;28;20013;-61
2023/03/09 00:10:57;;;;;;;;;;;;;;;1.52;84.66;99013.50;4123621;28;20020;-62
2023/03/09 00:13:00;;;;;;;;;;;;;;;1.52;84.72;98997.53;4121842;28;20017;-63
2023/03/09 00:15:02;;;;;;;;;;;;;;;1.52;84.55;99001.03;4119028;28;20012;-61
2023/03/09 00:17:03;;;;;;;;;;;;;;;1.51;84.75;98991.38;4122661;28;20013;-64
2023/03/09 00:19:10;;;;;;;;;;;;;;;1.51;84.44;98994.03;4123809;28;19926;-62
2023/03/09 00:21:33;;;;;;;;;;;;;;;1.51;84.44;98998.53;4123049;28;20017;-61
2023/03/09 00:23:36;;;;;;;;;;;;;;;1.50;84.56;99000.34;4122728;28;20395;-62
2023/03/09 00:25:38;;;;;;;;;;;;;;;1.50;84.41;98986.22;4122912;28;20016;-63
2023/03/09 00:27:41;;;;;;;;;;;;;;;1.51;84.45;98987.91;4122140;28;20435;-63
2023/03/09 00:29:43;;;;;;;;;;;;;;;1.52;84.21;99002.84;4123323;28;20032;-62
2023/03/09 00:31:45;;;;;;;;;;;;;;;1.50;84.29;98997.69;4121930;28;20068;-62
2023/03/09 00:33:47;;;;;;;;;;;;;;;1.51;84.03;98995.88;4119974;28;20388;-57
2023/03/09 00:35:49;;;;;;;;;;;;;;;1.50;84.16;98991.53;4123096;28;20366;-58
2023/03/09 00:37:51;;;;;;;;;;;;;;;1.50;84.29;98994.19;4122919;28;20028;-56
2023/03/09 00:39:54;;;;;;;;;;;;;;;1.50;84.19;98992.38;4121767;28;20598;-58
2023/03/09 00:41:56;;;;;;;;;;;;;;;1.49;84.32;99003.16;4116364;28;20060;-60
2023/03/09 00:44:01;;;;;;;;;;;;;;;1.47;84.37;98998.00;4116380;28;20033;-62
2023/03/09 00:46:03;;;;;;;;;;;;;;;1.45;84.48;99007.97;4119469;28;20706;-60
2023/03/09 00:48:05;;;;;;;;;;;;;;;1.46;84.42;99007.00;4122887;28;20455;-59
2023/03/09 00:50:08;;;;;;;;;;;;;;;1.47;84.62;99006.00;4120945;28;20033;-60
2023/03/09 00:52:10;;;;;;;;;;;;;;;1.45;84.39;99007.97;4121841;28;20025;-59
2023/03/09 00:54:13;;;;;;;;;;;;;;;1.46;84.74;99000.81;4122993;28;20020;-56
2023/03/09 00:56:17;;;;;;;;;;;;;;;1.46;84.64;99001.69;4121979;28;20013;-59
2023/03/09 00:58:20;;;;;;;;;;;;;;;1.48;84.65;99014.81;4118966;28;20391;-60
2023/03/09 01:00:22;;;;;;;;;;;;;;;1.47;84.57;98999.84;4123092;28;20016;-62
2023/03/09 01:02:24;;;;;;;;;;;;;;;1.48;84.56;98996.19;4120882;28;20029;-59
2023/03/09 01:04:26;;;;;;;;;;;;;;;1.48;84.43;98994.34;4121217;28;20041;-58
2023/03/09 01:06:28;;;;;;;;;;;;;;;1.48;84.41;98986.38;4121932;28;20041;-59
2023/03/09 01:08:30;;;;;;;;;;;;;;;1.47;84.53;98992.69;4120605;28;19970;-60
2023/03/09 01:10:32;;;;;;;;;;;;;;;1.47;84.36;98986.53;4120420;28;20013;-60
2023/03/09 01:12:39;;;;;;;;;;;;;;;1.46;84.67;98977.75;4121399;28;20025;-60
2023/03/09 01:14:41;;;;;;;;;;;;;;;1.48;84.63;98980.25;4121310;28;20033;-59
2023/03/09 01:16:48;;;;;;;;;;;;;;;1.50;84.21;98980.91;4122418;28;20001;-60
2023/03/09 01:18:50;;;;;;;;;;;;;;;1.50;84.26;98980.91;4105400;28;20044;-60
2023/03/09 01:20:53;;;;;;;;;;;;;;;1.50;84.18;98970.25;4122844;28;20038;-61
2023/03/09 01:22:58;;;;;;;;;;;;;;;1.50;84.24;98971.06;4120237;28;20033;-60
2023/03/09 01:25:01;;;;;;;;;;;;;;;1.52;83.96;98970.91;4122575;28;20032;-63
2023/03/09 01:27:04;;;;;;;;;;;;;;;1.51;84.19;98967.44;4112190;28;19989;-62
2023/03/09 01:29:08;;;;;;;;;;;;;;;1.51;83.93;98971.94;4120234;28;20024;-61
2023/03/09 01:31:10;;;;;;;;;;;;;;;1.51;84.21;98971.94;4117810;28;20033;-63
2023/03/09 01:33:15;;;;;;;;;;;;;;;1.51;84.11;98969.28;4103999;28;20034;-61
2023/03/09 01:35:20;;;;;;;;;;;;;;;1.49;84.16;98969.44;4122703;28;20028;-61
2023/03/09 01:37:22;;;;;;;;;;;;;;;1.49;84.26;98965.91;4121967;28;20012;-63
2023/03/09 01:39:26;;;;;;;;;;;;;;;1.50;84.51;98962.28;4122472;28;19925;-63
2023/03/09 01:41:28;;;;;;;;;;;;;;;1.49;84.58;98955.28;4122357;28;19925;-62
2023/03/09 01:43:39;;;;;;;;;;;;;;;1.47;84.88;98951.97;4122084;28;20057;-60
2023/03/09 01:46:02;;;;;;;;;;;;;;;1.46;84.78;98955.59;4121851;28;20016;-61
2023/03/09 01:48:06;;;;;;;;;;;;;;;1.44;85.00;98953.97;4110611;28;20016;-62
2023/03/09 01:50:08;;;;;;;;;;;;;;;1.42;85.25;98955.91;4120750;28;20041;-61
2023/03/09 01:52:15;;;;;;;;;;;;;;;1.44;85.44;98947.78;4120864;28;20112;-62
2023/03/09 01:54:23;;;;;;;;;;;;;;;1.44;85.61;98953.97;4105578;28;20218;-62
2023/03/09 01:56:26;;;;;;;;;;;;;;;1.44;85.61;98947.78;4117378;28;20020;-61
2023/03/09 01:58:30;;;;;;;;;;;;;;;1.44;85.58;98943.31;4120739;28;20402;-62
2023/03/09 02:00:33;;;;;;;;;;;;;;;1.43;85.50;98949.63;4105384;28;20033;-62
2023/03/09 02:02:42;;;;;;;;;;;;;;;1.46;85.39;98939.63;4119819;28;20033;-62
2023/03/09 02:04:46;;;;;;;;;;;;;;;1.44;85.54;98940.66;4121199;28;20005;-61
2023/03/09 02:06:51;;;;;;;;;;;;;;;1.43;85.38;98941.63;4120412;28;20078;-60
2023/03/09 02:09:01;;;;;;;;;;;;;;;1.44;85.26;98945.13;4121734;28;20037;-62
2023/03/09 02:11:07;;;;;;;;;;;;;;;1.42;85.46;98939.97;4123351;28;20024;-61
2023/03/09 02:13:12;;;;;;;;;;;;;;;1.43;85.92;98943.47;4123113;28;20029;-62
2023/03/09 02:15:17;;;;;;;;;;;;;;;1.43;85.71;98951.47;4108068;28;19933;-62
2023/03/09 02:17:19;;;;;;;;;;;;;;;1.42;85.83;98952.44;4124555;28;20004;-62
2023/03/09 02:19:25;;;;;;;;;;;;;;;1.42;85.80;98949.78;4121786;28;20033;-62
2023/03/09 02:21:34;;;;;;;;;;;;;;;1.42;85.63;98944.47;4126081;28;20052;-63
2023/03/09 02:23:37;;;;;;;;;;;;;;;1.41;85.83;98935.66;4123604;28;19957;-63
2023/03/09 02:25:42;;;;;;;;;;;;;;;1.41;85.85;98943.63;4124932;28;20008;-61
2023/03/09 02:27:48;;;;;;;;;;;;;;;1.42;85.77;98936.47;4107519;28;20020;-61
2023/03/09 02:29:50;;;;;;;;;;;;;;;1.42;86.03;98934.63;4125411;28;20013;-62
2023/03/09 02:31:58;;;;;;;;;;;;;;;1.40;85.90;98930.50;4106651;28;19958;-62
2023/03/09 02:34:00;;;;;;;;;;;;;;;1.41;85.85;98926.81;4108305;28;20009;-59
2023/03/09 02:36:02;;;;;;;;;;;;;;;1.40;85.93;98923.34;4124107;28;20021;-62
2023/03/09 02:38:12;;;;;;;;;;;;;;;1.41;86.05;98924.16;4122915;28;20375;-62
2023/03/09 02:40:15;;;;;;;;;;;;;;;1.42;86.06;98917.84;4105746;28;19972;-58
2023/03/09 02:42:18;;;;;;;;;;;;;;;1.38;85.91;98909.38;4122347;28;20033;-61
2023/03/09 02:44:23;;;;;;;;;;;;;;;1.39;85.98;98907.53;4123411;28;20064;-63
2023/03/09 02:46:26;;;;;;;;;;;;;;;1.40;86.18;98909.22;4122030;28;20028;-58
2023/03/09 02:48:28;;;;;;;;;;;;;;;1.39;86.27;98902.22;4123641;28;20056;-63
2023/03/09 02:50:30;;;;;;;;;;;;;;;1.39;86.43;98913.69;4124362;28;20393;-62
2023/03/09 02:52:32;;;;;;;;;;;;;;;1.40;86.23;98903.91;4089737;29;20145;-61
2023/03/09 02:54:34;;;;;;;;;;;;;;;1.39;86.31;98919.00;4124244;28;20036;-61
2023/03/09 02:56:36;;;;;;;;;;;;;;;1.39;86.47;98905.69;4118716;28;19953;-61
2023/03/09 02:58:39;;;;;;;;;;;;;;;1.38;86.46;98906.72;4123351;28;20016;-60
2023/03/09 03:00:42;;;;;;;;;;;;;;;1.40;86.62;98898.56;4124084;28;20032;-59
2023/03/09 03:02:44;;;;;;;;;;;;;;;1.40;86.34;98904.72;4121566;28;20012;-62
2023/03/09 03:04:46;;;;;;;;;;;;;;;1.42;86.47;98907.22;4124442;28;20040;-61
2023/03/09 03:06:49;;;;;;;;;;;;;;;1.42;86.28;98904.56;4123015;28;20571;-62
2023/03/09 03:08:51;;;;;;;;;;;;;;;1.41;86.17;98906.38;4122904;28;20021;-60
2023/03/09 03:10:53;;;;;;;;;;;;;;;1.40;86.54;98899.41;4124467;28;20656;-60
2023/03/09 03:12:55;;;;;;;;;;;;;;;1.40;86.36;98893.25;4123390;28;20012;-61
2023/03/09 03:14:58;;;;;;;;;;;;;;;1.40;86.42;98898.56;4123406;28;20372;-62
2023/03/09 03:17:01;;;;;;;;;;;;;;;1.40;86.53;98902.06;4105571;28;20033;-62
2023/03/09 03:19:04;;;;;;;;;;;;;;;1.39;86.61;98902.22;4118849;28;20012;-60
2023/03/09 03:21:09;;;;;;;;;;;;;;;1.40;86.46;98901.22;4106391;28;20008;-59
2023/03/09 03:23:15;;;;;;;;;;;;;;;1.41;86.30;98894.91;4106605;28;20029;-59
2023/03/09 03:25:24;;;;;;;;;;;;;;;1.41;86.52;98900.22;4122973;28;20483;-58
2023/03/09 03:27:31;;;;;;;;;;;;;;;1.40;86.28;98887.94;4122090;28;20016;-59
2023/03/09 03:29:33;;;;;;;;;;;;;;;1.40;86.25;98895.91;4122980;28;20029;-59
2023/03/09 03:31:36;;;;;;;;;;;;;;;1.39;86.17;98887.09;4106370;28;20029;-60
2023/03/09 03:33:39;;;;;;;;;;;;;;;1.37;86.38;98885.59;4123816;28;20021;-60
2023/03/09 03:35:41;;;;;;;;;;;;;;;1.37;86.28;98886.41;4120255;28;20029;-60
2023/03/09 03:37:43;;;;;;;;;;;;;;;1.36;86.28;98883.91;4105212;28;20028;-59
2023/03/09 03:39:46;;;;;;;;;;;;;;;1.34;86.19;98884.09;4122323;28;20017;-59
2023/03/09 03:41:48;;;;;;;;;;;;;;;1.35;86.45;98882.25;4121551;28;20069;-57
2023/03/09 03:43:53;;;;;;;;;;;;;;;1.36;86.16;98884.75;4122060;28;20020;-56
2023/03/09 03:45:57;;;;;;;;;;;;;;;1.36;86.52;98890.06;4122317;28;20861;-61
2023/03/09 03:48:00;;;;;;;;;;;;;;;1.36;86.41;98897.22;4106134;28;20017;-58
2023/03/09 03:50:06;;;;;;;;;;;;;;;1.36;86.43;98891.91;4122437;28;20040;-57
2023/03/09 03:52:14;;;;;;;;;;;;;;;1.36;86.38;98881.25;4105985;28;20029;-62
2023/03/09 03:54:16;;;;;;;;;;;;;;;1.35;86.44;98880.44;4116436;28;20020;-61
2023/03/09 03:56:18;;;;;;;;;;;;;;;1.34;86.44;98885.94;4123299;28;20045;-59
2023/03/09 03:58:21;;;;;;;;;;;;;;;1.32;86.27;98887.94;4122715;28;20596;-59
2023/03/09 04:00:24;;;;;;;;;;;;;;;1.32;86.36;98886.09;4123292;28;20014;-55
2023/03/09 04:02:29;;;;;;;;;;;;;;;1.34;86.41;98881.44;4122526;28;20016;-59
2023/03/09 04:04:31;;;;;;;;;;;;;;;1.33;86.32;98879.75;4118421;28;20018;-60
2023/03/09 04:06:42;;;;;;;;;;;;;;;1.34;86.61;98880.59;4122082;28;20021;-60
2023/03/09 04:08:44;;;;;;;;;;;;;;;1.33;86.36;98869.13;4123107;28;20374;-59
2023/03/09 04:10:46;;;;;;;;;;;;;;;1.31;86.30;98868.44;4118542;28;19964;-62
2023/03/09 04:12:49;;;;;;;;;;;;;;;1.31;86.16;98876.44;4117974;28;20013;-58
2023/03/09 04:14:52;;;;;;;;;;;;;;;1.31;86.10;98865.78;4121502;28;20009;-61
2023/03/09 04:16:54;;;;;;;;;;;;;;;1.34;86.13;98872.63;4105735;28;20448;-60
2023/03/09 04:18:56;;;;;;;;;;;;;;;1.34;85.85;98872.63;4117531;28;20445;-60
2023/03/09 04:20:59;;;;;;;;;;;;;;;1.34;85.75;98867.31;4105703;28;20013;-57
2023/03/09 04:23:03;;;;;;;;;;;;;;;1.32;85.93;98870.13;4121170;28;20008;-60
2023/03/09 04:25:05;;;;;;;;;;;;;;;1.33;85.98;98863.78;4121622;28;20024;-62
2023/03/09 04:27:08;;;;;;;;;;;;;;;1.34;85.74;98870.78;4120268;28;20029;-60
2023/03/09 04:29:17;;;;;;;;;;;;;;;1.34;85.92;98862.81;4121570;28;20020;-62
2023/03/09 04:31:19;;;;;;;;;;;;;;;1.34;85.82;98868.13;4105375;28;20029;-63
2023/03/09 04:33:21;;;;;;;;;;;;;;;1.34;85.90;98859.31;4104938;28;20034;-61
2023/03/09 04:35:23;;;;;;;;;;;;;;;1.31;85.69;98859.66;4121866;28;20154;-62
2023/03/09 04:37:25;;;;;;;;;;;;;;;1.31;85.91;98868.44;4121232;28;20013;-62
2023/03/09 04:39:31;;;;;;;;;;;;;;;1.31;85.88;98872.94;4121546;28;20028;-62
2023/03/09 04:41:33;;;;;;;;;;;;;;;1.33;85.63;98871.78;4116353;28;20494;-62
2023/03/09 04:43:37;;;;;;;;;;;;;;;1.34;85.66;98868.13;4121200;28;20016;-62
2023/03/09 04:45:40;;;;;;;;;;;;;;;1.35;85.64;98869.81;4121086;28;20052;-62
2023/03/09 04:47:42;;;;;;;;;;;;;;;1.36;85.75;98879.44;4122410;28;20038;-60
2023/03/09 04:49:44;;;;;;;;;;;;;;;1.34;85.44;98881.44;4120130;28;20032;-61
2023/03/09 04:51:47;;;;;;;;;;;;;;;1.32;85.60;98880.78;4120998;28;20021;-62
2023/03/09 04:53:50;;;;;;;;;;;;;;;1.30;85.75;98877.44;4121646;28;20448;-63
2023/03/09 04:55:54;;;;;;;;;;;;;;;1.31;85.46;98889.72;4120679;28;20504;-61
2023/03/09 04:57:56;;;;;;;;;;;;;;;1.31;85.65;98880.94;4101515;28;20369;-63
2023/03/09 04:59:59;;;;;;;;;;;;;;;1.32;85.43;98883.44;4120140;28;20025;-60
2023/03/09 05:02:03;;;;;;;;;;;;;;;1.35;85.55;98887.56;4120098;28;20025;-60
2023/03/09 05:04:14;;;;;;;;;;;;;;;1.34;85.51;98896.56;4120947;28;20410;-61
2023/03/09 05:06:23;;;;;;;;;;;;;;;1.35;85.35;98892.88;4119272;28;19929;-61
2023/03/09 05:08:27;;;;;;;;;;;;;;;1.34;85.28;98905.38;4120963;28;20021;-62
2023/03/09 05:10:30;;;;;;;;;;;;;;;1.32;85.21;98909.22;4105382;28;20151;-63
2023/03/09 05:12:36;;;;;;;;;;;;;;;1.32;85.15;98909.22;4121425;28;20407;-61
2023/03/09 05:14:41;;;;;;;;;;;;;;;1.28;85.26;98905.19;4121207;28;20052;-60
2023/03/09 05:16:43;;;;;;;;;;;;;;;1.30;85.19;98911.16;4121569;28;20086;-63
2023/03/09 05:18:48;;;;;;;;;;;;;;;1.29;85.35;98910.34;4119244;28;20356;-59
2023/03/09 05:20:50;;;;;;;;;;;;;;;1.28;85.48;98914.00;4120255;28;20056;-62
2023/03/09 05:22:54;;;;;;;;;;;;;;;1.28;85.65;98916.66;4122127;28;20336;-60
2023/03/09 05:24:56;;;;;;;;;;;;;;;1.29;85.81;98920.16;4122222;28;20060;-61
2023/03/09 05:26:58;;;;;;;;;;;;;;;1.28;85.73;98919.31;4119945;28;20025;-63
2023/03/09 05:29:05;;;;;;;;;;;;;;;1.30;85.98;98921.81;4120163;28;20029;-63
2023/03/09 05:31:10;;;;;;;;;;;;;;;1.29;85.90;98923.66;4121112;28;20021;-60
2023/03/09 05:33:13;;;;;;;;;;;;;;;1.28;86.14;98921.97;4119587;28;20029;-60
2023/03/09 05:35:17;;;;;;;;;;;;;;;1.29;86.12;98921.00;4121200;28;20024;-62
2023/03/09 05:37:37;;;;;;;;;;;;;;;1.29;86.10;98921.00;4119171;28;20041;-63
2023/03/09 05:39:47;;;;;;;;;;;;;;;1.27;85.93;98925.66;4122899;28;20032;-62
2023/03/09 05:41:50;;;;;;;;;;;;;;;1.26;85.96;98930.13;4120735;28;20013;-60
2023/03/09 05:44:03;;;;;;;;;;;;;;;1.26;86.26;98930.13;4120276;28;19969;-64
2023/03/09 05:46:10;;;;;;;;;;;;;;;1.26;86.27;98923.97;4092861;28;19970;-63
2023/03/09 05:48:13;;;;;;;;;;;;;;;1.28;86.62;98937.09;4123261;28;19985;-60
2023/03/09 05:50:15;;;;;;;;;;;;;;;1.28;86.40;98937.09;4123625;28;20021;-61
2023/03/09 05:52:17;;;;;;;;;;;;;;;1.28;86.43;98937.09;4124618;28;20032;-61
2023/03/09 05:54:19;;;;;;;;;;;;;;;1.28;86.53;98935.28;4113733;28;20036;-63
2023/03/09 05:56:23;;;;;;;;;;;;;;;1.28;86.42;98943.25;4113829;28;20024;-61
2023/03/09 05:58:27;;;;;;;;;;;;;;;1.27;86.73;98930.97;4122736;28;20130;-60
2023/03/09 06:00:30;;;;;;;;;;;;;;;1.28;86.68;98940.59;4125443;28;20029;-63
2023/03/09 06:02:38;;;;;;;;;;;;;;;1.29;86.62;98938.78;4123776;28;20028;-63
2023/03/09 06:04:40;;;;;;;;;;;;;;;1.28;86.82;98943.25;4109703;28;20033;-63
2023/03/09 06:06:44;;;;;;;;;;;;;;;1.27;86.86;98949.59;4124256;28;20016;-60
2023/03/09 06:08:46;;;;;;;;;;;;;;;1.27;86.81;98946.94;4124763;28;20376;-58
2023/03/09 06:10:50;;;;;;;;;;;;;;;1.26;86.82;98954.06;4108214;28;20013;-62
2023/03/09 06:12:55;;;;;;;;;;;;;;;1.26;87.08;98962.03;4107767;28;20642;-58
2023/03/09 06:15:00;;;;;;;;;;;;;;;1.28;87.23;98963.69;4124601;28;20077;-62
2023/03/09 06:17:05;;;;;;;;;;;;;;;1.25;87.00;98970.16;4120537;28;20017;-61
2023/03/09 06:19:08;;;;;;;;;;;;;;;1.26;87.13;98974.50;4125814;28;20013;-59
2023/03/09 06:21:11;;;;;;;;;;;;;;;1.24;87.22;98972.00;4097970;28;20017;-61
2023/03/09 06:23:14;;;;;;;;;;;;;;;1.23;87.18;98978.31;4121833;28;20037;-62
2023/03/09 06:25:17;;;;;;;;;;;;;;;1.24;87.37;98984.47;4123397;28;20025;-63
2023/03/09 06:27:20;;;;;;;;;;;;;;;1.23;87.31;98988.94;4108112;28;20074;-63
2023/03/09 06:29:25;;;;;;;;;;;;;;;1.24;87.29;98992.47;4124312;28;20511;-62
2023/03/09 06:31:27;;;;;;;;;;;;;;;1.25;87.38;98978.16;4122117;28;20028;-63
2023/03/09 06:33:31;;;;;;;;;;;;;;;1.26;87.59;98993.94;4107631;28;20409;-61
2023/03/09 06:35:36;;;;;;;;;;;;;;;1.26;87.39;98993.94;4123549;28;20024;-61
2023/03/09 06:37:41;;;;;;;;;;;;;;;1.27;87.27;99002.78;4122932;28;20099;-61
2023/03/09 06:39:43;;;;;;;;;;;;;;;1.28;87.60;99000.94;4125032;28;20017;-60
2023/03/09 06:41:47;;;;;;;;;;;;;;;1.29;87.38;99008.75;4122614;28;20012;-62
2023/03/09 06:44:02;;;;;;;;;;;;;;;1.31;87.45;99001.44;4123887;28;20020;-63
2023/03/09 06:46:05;;;;;;;;;;;;;;;1.32;87.61;99011.09;4122668;28;20017;-62
2023/03/09 06:48:09;;;;;;;;;;;;;;;1.34;87.48;99006.44;4105777;28;20451;-61
2023/03/09 06:50:12;;;;;;;;;;;;;;;1.34;87.41;99008.28;4106380;28;20024;-63
2023/03/09 06:52:19;;;;;;;;;;;;;;;1.34;87.51;99022.41;4106014;28;20025;-62
2023/03/09 06:54:23;;;;;;;;;;;;;;;1.38;87.38;99025.56;4124152;28;20044;-61
2023/03/09 06:56:37;;;;;;;;;;;;;;;1.38;87.10;99036.22;4105783;28;20049;-61
2023/03/09 06:58:39;;;;;;;;;;;;;;;1.38;87.20;99038.88;4123979;28;20341;-62
2023/03/09 07:00:46;;;;;;;;;;;;;;;1.36;87.14;99041.69;4119317;28;20432;-64
2023/03/09 07:02:48;;;;;;;;;;;;;;;1.36;86.96;99048.84;4121708;28;20147;-63
2023/03/09 07:04:51;;;;;;;;;;;;;;;1.35;86.89;99044.50;4119997;28;20012;-64
2023/03/09 07:06:53;;;;;;;;;;;;;;;1.39;87.07;99056.50;4121286;28;20372;-64
2023/03/09 07:08:57;;;;;;;;;;;;;;;1.40;87.22;99045.72;4123588;28;20036;-63
2023/03/09 07:10:59;;;;;;;;;;;;;;;1.41;86.89;99054.50;4123532;28;20016;-64
2023/03/09 07:13:01;;;;;;;;;;;;;;;1.41;86.99;99058.03;4122829;28;20025;-60
2023/03/09 07:15:03;;;;;;;;;;;;;;;1.42;86.85;99072.16;4123152;28;20044;-63
2023/03/09 07:17:05;;;;;;;;;;;;;;;1.42;86.70;99078.28;4123032;28;20052;-62
2023/03/09 07:19:07;;;;;;;;;;;;;;;1.42;86.52;99082.78;4123971;28;20271;-62
2023/03/09 07:21:09;;;;;;;;;;;;;;;1.42;86.51;99083.63;4123681;28;20017;-61
2023/03/09 07:23:11;;;;;;;;;;;;;;;1.41;86.37;99083.78;4122748;28;20009;-64
2023/03/09 07:25:16;;;;;;;;;;;;;;;1.40;86.42;99088.28;4123245;28;20392;-61
2023/03/09 07:27:18;;;;;;;;;;;;;;;1.40;86.27;99098.09;4123603;28;20017;-64
2023/03/09 07:29:20;;;;;;;;;;;;;;;1.39;86.08;99107.88;4123650;28;20029;-64
2023/03/09 07:31:26;;;;;;;;;;;;;;;1.42;86.07;99107.56;4123326;28;20052;-62
2023/03/09 07:33:28;;;;;;;;;;;;;;;1.43;86.00;99111.06;4120086;28;20024;-64
2023/03/09 07:35:30;;;;;;;;;;;;;;;1.44;86.00;99120.72;4123628;28;20021;-64
2023/03/09 07:37:32;;;;;;;;;;;;;;;1.43;85.93;99119.88;4123920;28;20024;-65
2023/03/09 07:39:34;;;;;;;;;;;;;;;1.44;85.84;99123.38;4124036;28;20494;-64
2023/03/09 07:41:37;;;;;;;;;;;;;;;1.46;85.67;99133.84;4123615;28;20449;-65
2023/03/09 07:43:43;;;;;;;;;;;;;;;1.46;85.55;99142.69;4123747;28;20032;-64
2023/03/09 07:45:54;;;;;;;;;;;;;;;1.46;85.44;99137.38;4122272;28;20022;-64
2023/03/09 07:47:56;;;;;;;;;;;;;;;1.44;85.20;99132.19;4123657;28;20854;-63
2023/03/09 07:49:58;;;;;;;;;;;;;;;1.47;85.53;99123.06;4124028;28;20367;-65
2023/03/09 07:52:00;;;;;;;;;;;;;;;1.48;85.53;99129.22;4123017;28;20013;-64
2023/03/09 07:54:02;;;;;;;;;;;;;;;1.49;85.51;99130.88;4123331;28;20029;-65
2023/03/09 07:56:04;;;;;;;;;;;;;;;1.50;85.17;99132.56;4122111;28;20021;-65
2023/03/09 07:58:08;;;;;;;;;;;;;;;1.50;85.34;99133.38;4123071;28;20037;-65
2023/03/09 08:00:12;;;;;;;;;;;;;;;1.50;85.27;99146.69;4123728;28;20021;-65
2023/03/09 08:02:14;;;;;;;;;;;;;;;1.51;85.18;99144.88;4122213;28;20024;-64
2023/03/09 08:04:16;;;;;;;;;;;;;;;1.53;85.18;99149.03;4123209;28;20032;-65
2023/03/09 08:06:19;;;;;;;;;;;;;;;1.55;84.97;99165.69;4122694;28;20017;-62
2023/03/09 08:08:20;;;;;;;;;;;;;;;1.55;84.76;99172.81;4123379;28;20020;-64
2023/03/09 08:10:26;;;;;;;;;;;;;;;1.57;84.83;99177.00;4123351;28;20064;-62
2023/03/09 08:12:27;;;;;;;;;;;;;;;1.58;84.49;99185.81;4122521;28;20025;-64
2023/03/09 08:14:31;;;;;;;;;;;;;;;1.57;84.70;99185.00;4123105;28;20356;-65
2023/03/09 08:16:33;;;;;;;;;;;;;;;1.60;84.75;99197.16;4122673;28;20247;-65
2023/03/09 08:18:35;;;;;;;;;;;;;;;1.61;84.51;99198.81;4123370;28;19964;-65
2023/03/09 08:20:38;;;;;;;;;;;;;;;1.62;84.16;99206.63;4119444;28;20009;-65
2023/03/09 08:22:40;;;;;;;;;;;;;;;1.60;83.80;99197.16;4120475;28;20114;-65
2023/03/09 08:24:43;;;;;;;;;;;;;;;1.59;83.91;99198.13;4112474;28;20012;-65
2023/03/09 08:26:45;;;;;;;;;;;;;;;1.60;83.84;99199.81;4122765;28;20001;-63
2023/03/09 08:28:47;;;;;;;;;;;;;;;1.59;83.71;99204.28;4122446;28;20033;-65
2023/03/09 08:30:51;;;;;;;;;;;;;;;1.60;83.84;99208.63;4121795;28;20024;-64
2023/03/09 08:32:53;;;;;;;;;;;;;;;1.62;83.72;99217.28;4121399;28;20555;-65
2023/03/09 08:34:55;;;;;;;;;;;;;;;1.64;83.80;99216.28;4118668;28;20038;-64
2023/03/09 08:36:57;;;;;;;;;;;;;;;1.66;84.01;99222.28;4120591;28;20029;-65
2023/03/09 08:39:02;;;;;;;;;;;;;;;1.69;84.20;99214.00;4104282;28;20428;-64
2023/03/09 08:41:04;;;;;;;;;;;;;;;1.72;84.18;99217.16;4121015;28;20029;-65
2023/03/09 08:43:06;;;;;;;;;;;;;;;1.73;83.89;99205.53;4120185;28;20029;-64
2023/03/09 08:45:08;;;;;;;;;;;;;;;1.76;83.83;99210.53;4122664;28;20056;-64
2023/03/09 08:47:12;;;;;;;;;;;;;;;1.78;83.60;99226.34;4120487;28;20590;-62
2023/03/09 08:49:14;;;;;;;;;;;;;;;1.80;83.45;99222.56;4122557;28;20025;-64
2023/03/09 08:51:16;;;;;;;;;;;;;;;1.81;83.44;99223.38;4117223;28;20024;-64
2023/03/09 08:53:18;;;;;;;;;;;;;;;1.83;82.94;99224.03;4121308;28;20016;-64
2023/03/09 08:55:20;;;;;;;;;;;;;;;1.84;82.64;99230.22;4122350;28;20485;-65
2023/03/09 08:57:23;;;;;;;;;;;;;;;1.85;82.74;99237.19;4121029;28;20021;-65
2023/03/09 08:59:28;;;;;;;;;;;;;;;1.84;82.35;99236.38;4122416;28;20396;-64
2023/03/09 09:01:30;;;;;;;;;;;;;;;1.83;82.46;99236.53;4121640;28;20024;-65
2023/03/09 09:03:33;;;;;;;;;;;;;;;1.82;82.48;99234.84;4120943;28;20025;-65
2023/03/09 09:05:36;;;;;;;;;;;;;;;1.83;82.39;99233.88;4119330;28;20009;-65
2023/03/09 09:07:40;;;;;;;;;;;;;;;1.81;82.40;99234.03;4121121;28;20037;-65
2023/03/09 09:09:42;;;;;;;;;;;;;;;1.80;82.37;99243.00;4121709;28;20020;-63
2023/03/09 09:11:44;;;;;;;;;;;;;;;1.80;82.46;99245.66;4121268;28;20021;-64
2023/03/09 09:13:46;;;;;;;;;;;;;;;1.80;82.55;99250.97;4121898;28;20017;-65
2023/03/09 09:15:52;;;;;;;;;;;;;;;1.81;82.74;99258.00;4121639;28;20022;-66
2023/03/09 09:17:54;;;;;;;;;;;;;;;1.81;82.73;99263.31;4120002;28;20020;-66
2023/03/09 09:19:57;;;;;;;;;;;;;;;1.83;82.82;99271.97;4121953;28;20036;-63
2023/03/09 09:21:59;;;;;;;;;;;;;;;1.83;82.25;99273.81;4121205;28;20013;-65
2023/03/09 09:24:02;;;;;;;;;;;;;;;1.84;82.30;99278.97;4121444;28;20448;-65
2023/03/09 09:26:03;;;;;;;;;;;;;;;1.83;82.50;99277.28;4120506;28;20016;-65
2023/03/09 09:28:06;;;;;;;;;;;;;;;1.83;82.57;99277.28;4121289;28;20024;-65
2023/03/09 09:30:09;;;;;;;;;;;;;;;1.85;82.47;99283.31;4118109;28;20014;-65
2023/03/09 09:32:11;;;;;;;;;;;;;;;1.85;82.61;99296.63;4120898;28;20013;-65
2023/03/09 09:34:17;;;;;;;;;;;;;;;1.85;82.67;99301.09;4122025;28;20028;-65
2023/03/09 09:36:20;;;;;;;;;;;;;;;1.85;82.58;99304.63;4122206;28;20028;-63
2023/03/09 09:38:22;;;;;;;;;;;;;;;1.86;82.61;99306.28;4118768;28;20021;-63
2023/03/09 09:40:24;;;;;;;;;;;;;;;1.87;82.21;99307.13;4122333;28;20024;-63
2023/03/09 09:42:29;;;;;;;;;;;;;;;1.85;82.30;99306.44;4121416;28;20025;-63
2023/03/09 09:44:32;;;;;;;;;;;;;;;1.85;82.66;99309.09;4122058;28;20431;-64
2023/03/09 09:46:34;;;;;;;;;;;;;;;1.84;82.62;99308.25;4121606;28;20016;-63
2023/03/09 09:48:36;;;;;;;;;;;;;;;1.86;82.63;99306.28;4122113;28;20017;-61
2023/03/09 09:50:42;;;;;;;;;;;;;;;1.87;82.57;99310.63;4112003;28;20475;-63
2023/03/09 09:52:47;;;;;;;;;;;;;;;1.88;82.14;99312.28;4115305;28;20020;-63
2023/03/09 09:54:50;;;;;;;;;;;;;;;1.88;81.78;99312.28;4122188;28;20484;-64
2023/03/09 09:56:53;;;;;;;;;;;;;;;1.90;81.87;99320.13;4119675;28;20029;-65
2023/03/09 09:58:57;;;;;;;;;;;;;;;1.91;81.79;99322.63;4122369;28;20032;-64
2023/03/09 10:01:00;;;;;;;;;;;;;;;1.91;81.29;99327.97;4117440;28;20498;-63
2023/03/09 10:03:07;;;;;;;;;;;;;;;1.93;81.24;99325.97;4121464;28;20021;-64
2023/03/09 10:05:12;;;;;;;;;;;;;;;1.93;81.22;99325.13;4122386;28;20029;-65
2023/03/09 10:07:15;;;;;;;;;;;;;;;1.89;80.92;99321.94;4115750;28;20029;-64
2023/03/09 10:09:19;;;;;;;;;;;;;;;1.94;80.87;99329.44;4117835;28;20020;-63
2023/03/09 10:11:23;;;;;;;;;;;;;;;1.94;80.70;99329.44;4121762;28;20013;-64
2023/03/09 10:13:29;;;;;;;;;;;;;;;1.94;80.85;99332.13;4121726;28;20022;-64
2023/03/09 10:15:31;;;;;;;;;;;;;;;1.94;80.46;99340.09;4122025;28;20021;-64
2023/03/09 10:17:34;;;;;;;;;;;;;;;1.94;80.54;99350.75;4121023;28;20605;-63
2023/03/09 10:19:38;;;;;;;;;;;;;;;1.91;80.81;99343.06;4121960;28;20024;-65
2023/03/09 10:21:42;;;;;;;;;;;;;;;1.90;80.88;99347.56;4121295;28;21506;-65
2023/03/09 10:23:44;;;;;;;;;;;;;;;1.90;80.68;99352.06;4120547;28;20024;-65
2023/03/09 10:25:48;;;;;;;;;;;;;;;1.90;80.68;99363.56;4121445;28;20012;-65
2023/03/09 10:27:55;;;;;;;;;;;;;;;1.88;80.79;99354.03;4120369;28;20435;-64
2023/03/09 10:29:58;;;;;;;;;;;;;;;1.88;80.61;99364.69;4122761;28;20028;-65
2023/03/09 10:32:04;;;;;;;;;;;;;;;1.87;80.99;99371.84;4124600;28;20008;-64
2023/03/09 10:34:07;;;;;;;;;;;;;;;1.85;80.84;99372.97;4124893;28;19926;-63
2023/03/09 10:36:11;;;;;;;;;;;;;;;1.84;81.20;99381.97;4125504;28;20021;-65
2023/03/09 10:38:13;;;;;;;;;;;;;;;1.85;81.46;99378.31;4124518;28;20029;-63
2023/03/09 10:40:17;;;;;;;;;;;;;;;1.85;81.42;99387.16;4124833;28;20064;-64
2023/03/09 10:42:21;;;;;;;;;;;;;;;1.85;81.46;99386.28;4122481;28;20017;-65
2023/03/09 10:44:23;;;;;;;;;;;;;;;1.85;81.73;99388.97;4124791;28;20028;-64
2023/03/09 10:46:26;;;;;;;;;;;;;;;1.85;81.59;99387.16;4124096;28;20024;-65
2023/03/09 10:48:28;;;;;;;;;;;;;;;1.86;81.27;99395.97;4124992;28;20361;-65
2023/03/09 10:50:30;;;;;;;;;;;;;;;1.86;81.30;99398.63;4122764;28;20024;-64
2023/03/09 10:52:32;;;;;;;;;;;;;;;1.87;81.11;99400.31;4123972;28;20033;-64